sensor_id;sensor_type;location;lat;lon;timestamp;temperature;humidity
45283;DHT22;31023;44.994;1.796;2022-10-29T00:00:21;16.60;99.90
45283;DHT22;31023;44.994;1.796;2022-10-29T00:02:47;16.50;99.90
45283;DHT22;31023;44.994;1.796;2022-10-29T00:05:12;16.40;99.90
45283;DHT22;31023;44.994;1.796;2022-10-29T00:07:38;16.40;99.90
45283;DHT22;31023;44.994;1.796;2022-10-29T00:10:03;16.40;99.90
45283;DHT22;31023;44.994;1.796;2022-10-29T00:12:29;16.30;99.90
45283;DHT22;31023;44.994;1.796;2022-10-29T00:14:55;16.40;99.90
45283;DHT22;31023;44.994;1.796;2022-10-29T00:17:20;16.40;99.90
45283;DHT22;31023;44.994;1.796;2022-10-29T00:19:46;16.40;99.90
45283;DHT22;31023;44.994;1.796;2022-10-29T00:22:11;16.50;99.90
45283;DHT22;31023;44.994;1.796;2022-10-29T00:24:37;16.50;99.90
45283;DHT22;31023;44.994;1.796;2022-10-29T00:27:02;16.50;99.90
45283;DHT22;31023;44.994;1.796;2022-10-29T00:29:28;16.60;99.40
45283;DHT22;31023;44.994;1.796;2022-10-29T00:31:53;16.70;98.90
45283;DHT22;31023;44.994;1.796;2022-10-29T00:34:19;16.50;99.50
45283;DHT22;31023;44.994;1.796;2022-10-29T00:36:44;16.40;99.80
45283;DHT22;31023;44.994;1.796;2022-10-29T00:39:13;16.30;99.90
45283;DHT22;31023;44.994;1.796;2022-10-29T00:41:39;16.30;99.90
45283;DHT22;31023;44.994;1.796;2022-10-29T00:46:43;16.30;99.90
45283;DHT22;31023;44.994;1.796;2022-10-29T00:49:09;16.30;99.90
45283;DHT22;31023;44.994;1.796;2022-10-29T00:51:35;16.30;99.90
45283;DHT22;31023;44.994;1.796;2022-10-29T00:54:03;16.30;99.80
45283;DHT22;31023;44.994;1.796;2022-10-29T00:56:30;16.30;99.80
45283;DHT22;31023;44.994;1.796;2022-10-29T00:58:57;16.20;99.90
45283;DHT22;31023;44.994;1.796;2022-10-29T01:01:22;16.10;99.90
45283;DHT22;31023;44.994;1.796;2022-10-29T01:03:48;16.10;99.80
45283;DHT22;31023;44.994;1.796;2022-10-29T01:06:14;16.10;99.40
45283;DHT22;31023;44.994;1.796;2022-10-29T01:08:39;16.10;99.30
45283;DHT22;31023;44.994;1.796;2022-10-29T01:18:48;16.30;97.50
45283;DHT22;31023;44.994;1.796;2022-10-29T01:27:18;16.30;97.10
45283;DHT22;31023;44.994;1.796;2022-10-29T01:32:13;16.00;97.70
45283;DHT22;31023;44.994;1.796;2022-10-29T01:34:41;15.90;97.90
45283;DHT22;31023;44.994;1.796;2022-10-29T01:37:31;15.80;98.20
45283;DHT22;31023;44.994;1.796;2022-10-29T01:39:56;15.80;98.10
45283;DHT22;31023;44.994;1.796;2022-10-29T01:42:35;15.80;98.20
45283;DHT22;31023;44.994;1.796;2022-10-29T01:47:39;15.90;98.20
45283;DHT22;31023;44.994;1.796;2022-10-29T01:50:06;15.90;97.90
45283;DHT22;31023;44.994;1.796;2022-10-29T01:52:33;16.00;96.50
45283;DHT22;31023;44.994;1.796;2022-10-29T01:55:00;16.40;93.90
45283;DHT22;31023;44.994;1.796;2022-10-29T01:57:33;16.50;93.60
45283;DHT22;31023;44.994;1.796;2022-10-29T02:00:03;16.50;93.30
45283;DHT22;31023;44.994;1.796;2022-10-29T02:02:34;16.40;93.10
45283;DHT22;31023;44.994;1.796;2022-10-29T02:12:53;16.80;89.60
45283;DHT22;31023;44.994;1.796;2022-10-29T02:15:25;16.70;90.20
45283;DHT22;31023;44.994;1.796;2022-10-29T02:17:57;16.80;87.30
45283;DHT22;31023;44.994;1.796;2022-10-29T02:20:23;16.80;85.60
45283;DHT22;31023;44.994;1.796;2022-10-29T02:22:48;17.00;82.20
45283;DHT22;31023;44.994;1.796;2022-10-29T02:25:14;17.10;80.80
45283;DHT22;31023;44.994;1.796;2022-10-29T02:27:39;16.80;83.00
45283;DHT22;31023;44.994;1.796;2022-10-29T02:30:06;16.90;81.40
45283;DHT22;31023;44.994;1.796;2022-10-29T02:32:31;17.30;77.80
45283;DHT22;31023;44.994;1.796;2022-10-29T02:34:58;17.20;79.70
45283;DHT22;31023;44.994;1.796;2022-10-29T02:37:23;16.80;84.00
45283;DHT22;31023;44.994;1.796;2022-10-29T02:39:49;16.50;87.50
45283;DHT22;31023;44.994;1.796;2022-10-29T02:42:15;16.20;90.60
45283;DHT22;31023;44.994;1.796;2022-10-29T02:44:40;16.10;91.80
45283;DHT22;31023;44.994;1.796;2022-10-29T02:47:06;16.00;92.50
45283;DHT22;31023;44.994;1.796;2022-10-29T02:49:31;15.90;93.00
45283;DHT22;31023;44.994;1.796;2022-10-29T02:51:57;15.80;92.90
45283;DHT22;31023;44.994;1.796;2022-10-29T02:54:22;16.00;91.10
45283;DHT22;31023;44.994;1.796;2022-10-29T02:56:48;16.00;91.70
45283;DHT22;31023;44.994;1.796;2022-10-29T02:59:13;16.00;91.20
45283;DHT22;31023;44.994;1.796;2022-10-29T03:01:39;16.00;91.40
45283;DHT22;31023;44.994;1.796;2022-10-29T03:04:04;15.90;91.40
45283;DHT22;31023;44.994;1.796;2022-10-29T03:06:30;15.90;91.50
45283;DHT22;31023;44.994;1.796;2022-10-29T03:08:55;15.90;91.20
45283;DHT22;31023;44.994;1.796;2022-10-29T03:11:21;15.90;91.20
45283;DHT22;31023;44.994;1.796;2022-10-29T03:13:46;15.80;91.20
45283;DHT22;31023;44.994;1.796;2022-10-29T03:16:12;15.80;91.20
45283;DHT22;31023;44.994;1.796;2022-10-29T03:18:37;16.00;90.00
45283;DHT22;31023;44.994;1.796;2022-10-29T03:21:03;15.90;90.30
45283;DHT22;31023;44.994;1.796;2022-10-29T03:23:28;16.00;89.30
45283;DHT22;31023;44.994;1.796;2022-10-29T03:25:54;16.00;89.10
45283;DHT22;31023;44.994;1.796;2022-10-29T03:28:21;16.00;88.30
45283;DHT22;31023;44.994;1.796;2022-10-29T03:30:47;16.00;89.10
45283;DHT22;31023;44.994;1.796;2022-10-29T03:33:12;15.90;88.30
45283;DHT22;31023;44.994;1.796;2022-10-29T03:35:38;16.00;88.20
45283;DHT22;31023;44.994;1.796;2022-10-29T03:38:03;16.00;87.50
45283;DHT22;31023;44.994;1.796;2022-10-29T03:40:29;15.90;88.00
45283;DHT22;31023;44.994;1.796;2022-10-29T03:42:54;16.00;87.80
45283;DHT22;31023;44.994;1.796;2022-10-29T03:45:20;15.90;87.50
45283;DHT22;31023;44.994;1.796;2022-10-29T03:47:45;15.90;87.20
45283;DHT22;31023;44.994;1.796;2022-10-29T03:50:11;15.90;87.20
45283;DHT22;31023;44.994;1.796;2022-10-29T03:52:37;16.00;86.30
45283;DHT22;31023;44.994;1.796;2022-10-29T03:55:02;15.90;85.80
45283;DHT22;31023;44.994;1.796;2022-10-29T03:57:28;16.10;84.50
45283;DHT22;31023;44.994;1.796;2022-10-29T03:59:54;16.20;83.20
45283;DHT22;31023;44.994;1.796;2022-10-29T04:02:20;16.10;82.90
45283;DHT22;31023;44.994;1.796;2022-10-29T04:04:46;16.40;80.30
45283;DHT22;31023;44.994;1.796;2022-10-29T04:07:11;16.50;77.60
45283;DHT22;31023;44.994;1.796;2022-10-29T04:09:37;16.70;76.00
45283;DHT22;31023;44.994;1.796;2022-10-29T04:12:03;16.60;75.70
45283;DHT22;31023;44.994;1.796;2022-10-29T04:14:28;16.60;76.50
45283;DHT22;31023;44.994;1.796;2022-10-29T04:16:54;16.60;75.80
45283;DHT22;31023;44.994;1.796;2022-10-29T04:19:19;16.50;76.20
45283;DHT22;31023;44.994;1.796;2022-10-29T04:21:45;16.50;76.10
45283;DHT22;31023;44.994;1.796;2022-10-29T04:24:10;16.30;76.70
45283;DHT22;31023;44.994;1.796;2022-10-29T04:26:36;16.20;76.70
45283;DHT22;31023;44.994;1.796;2022-10-29T04:29:02;16.30;76.10
45283;DHT22;31023;44.994;1.796;2022-10-29T04:31:27;16.10;77.40
45283;DHT22;31023;44.994;1.796;2022-10-29T04:33:53;16.10;77.00
45283;DHT22;31023;44.994;1.796;2022-10-29T04:36:18;15.90;78.30
45283;DHT22;31023;44.994;1.796;2022-10-29T04:38:44;16.10;77.50
45283;DHT22;31023;44.994;1.796;2022-10-29T04:41:09;15.90;78.10
45283;DHT22;31023;44.994;1.796;2022-10-29T04:43:35;15.80;79.00
45283;DHT22;31023;44.994;1.796;2022-10-29T04:46:00;15.80;78.70
45283;DHT22;31023;44.994;1.796;2022-10-29T04:48:27;15.90;78.50
45283;DHT22;31023;44.994;1.796;2022-10-29T04:50:52;15.80;78.90
45283;DHT22;31023;44.994;1.796;2022-10-29T04:53:18;15.60;79.80
45283;DHT22;31023;44.994;1.796;2022-10-29T04:55:44;15.70;79.90
45283;DHT22;31023;44.994;1.796;2022-10-29T04:58:16;15.60;80.00
45283;DHT22;31023;44.994;1.796;2022-10-29T05:00:42;15.70;79.40
45283;DHT22;31023;44.994;1.796;2022-10-29T05:03:08;15.80;78.90
45283;DHT22;31023;44.994;1.796;2022-10-29T05:05:34;15.80;79.00
45283;DHT22;31023;44.994;1.796;2022-10-29T05:08:01;15.80;78.20
45283;DHT22;31023;44.994;1.796;2022-10-29T05:10:28;15.90;77.50
45283;DHT22;31023;44.994;1.796;2022-10-29T05:15:22;16.00;75.20
45283;DHT22;31023;44.994;1.796;2022-10-29T05:17:48;16.30;72.50
45283;DHT22;31023;44.994;1.796;2022-10-29T05:20:13;16.30;72.90
45283;DHT22;31023;44.994;1.796;2022-10-29T05:22:39;16.40;72.10
45283;DHT22;31023;44.994;1.796;2022-10-29T05:25:04;16.40;71.70
45283;DHT22;31023;44.994;1.796;2022-10-29T05:27:30;16.50;71.00
45283;DHT22;31023;44.994;1.796;2022-10-29T05:29:56;16.30;72.10
45283;DHT22;31023;44.994;1.796;2022-10-29T05:32:21;16.40;71.70
45283;DHT22;31023;44.994;1.796;2022-10-29T05:34:47;16.20;72.10
45283;DHT22;31023;44.994;1.796;2022-10-29T05:37:12;16.30;71.70
45283;DHT22;31023;44.994;1.796;2022-10-29T05:39:38;16.20;71.70
45283;DHT22;31023;44.994;1.796;2022-10-29T05:42:04;16.20;71.60
45283;DHT22;31023;44.994;1.796;2022-10-29T05:44:30;16.20;71.90
45283;DHT22;31023;44.994;1.796;2022-10-29T05:46:55;16.10;72.50
45283;DHT22;31023;44.994;1.796;2022-10-29T05:49:21;16.00;72.70
45283;DHT22;31023;44.994;1.796;2022-10-29T05:51:46;15.90;72.70
45283;DHT22;31023;44.994;1.796;2022-10-29T05:54:12;16.00;71.80
45283;DHT22;31023;44.994;1.796;2022-10-29T05:56:37;16.00;71.70
45283;DHT22;31023;44.994;1.796;2022-10-29T05:59:03;16.10;71.10
45283;DHT22;31023;44.994;1.796;2022-10-29T06:01:28;16.00;71.60
45283;DHT22;31023;44.994;1.796;2022-10-29T06:03:54;16.10;71.60
45283;DHT22;31023;44.994;1.796;2022-10-29T06:06:19;16.00;71.50
45283;DHT22;31023;44.994;1.796;2022-10-29T06:08:45;16.00;71.50
45283;DHT22;31023;44.994;1.796;2022-10-29T06:11:10;16.00;71.30
45283;DHT22;31023;44.994;1.796;2022-10-29T06:13:36;16.10;70.60
45283;DHT22;31023;44.994;1.796;2022-10-29T06:16:01;16.20;70.60
45283;DHT22;31023;44.994;1.796;2022-10-29T06:18:27;16.40;68.80
45283;DHT22;31023;44.994;1.796;2022-10-29T06:20:53;16.40;68.70
45283;DHT22;31023;44.994;1.796;2022-10-29T06:23:19;16.40;68.50
45283;DHT22;31023;44.994;1.796;2022-10-29T06:25:44;16.50;68.40
45283;DHT22;31023;44.994;1.796;2022-10-29T06:28:11;16.40;68.50
45283;DHT22;31023;44.994;1.796;2022-10-29T06:30:39;16.50;67.90
45283;DHT22;31023;44.994;1.796;2022-10-29T06:33:05;16.50;67.40
45283;DHT22;31023;44.994;1.796;2022-10-29T06:35:31;16.60;66.60
45283;DHT22;31023;44.994;1.796;2022-10-29T06:37:57;16.70;66.30
45283;DHT22;31023;44.994;1.796;2022-10-29T06:40:22;16.70;65.70
45283;DHT22;31023;44.994;1.796;2022-10-29T06:42:48;16.60;66.70
45283;DHT22;31023;44.994;1.796;2022-10-29T06:45:14;16.70;65.30
45283;DHT22;31023;44.994;1.796;2022-10-29T06:47:40;16.80;65.20
45283;DHT22;31023;44.994;1.796;2022-10-29T06:50:06;16.80;65.50
45283;DHT22;31023;44.994;1.796;2022-10-29T06:52:32;16.90;65.00
45283;DHT22;31023;44.994;1.796;2022-10-29T06:54:58;17.10;63.70
45283;DHT22;31023;44.994;1.796;2022-10-29T06:57:29;17.20;63.80
45283;DHT22;31023;44.994;1.796;2022-10-29T06:59:55;17.30;64.30
45283;DHT22;31023;44.994;1.796;2022-10-29T07:02:21;17.20;65.30
45283;DHT22;31023;44.994;1.796;2022-10-29T07:04:46;17.30;64.80
45283;DHT22;31023;44.994;1.796;2022-10-29T07:07:12;17.40;64.40
45283;DHT22;31023;44.994;1.796;2022-10-29T07:09:37;17.60;64.10
45283;DHT22;31023;44.994;1.796;2022-10-29T07:12:03;17.90;63.20
45283;DHT22;31023;44.994;1.796;2022-10-29T07:14:28;18.40;62.40
45283;DHT22;31023;44.994;1.796;2022-10-29T07:16:54;18.60;60.00
45283;DHT22;31023;44.994;1.796;2022-10-29T07:19:19;18.70;58.00
45283;DHT22;31023;44.994;1.796;2022-10-29T07:21:45;19.00;57.20
45283;DHT22;31023;44.994;1.796;2022-10-29T07:24:11;18.90;57.10
45283;DHT22;31023;44.994;1.796;2022-10-29T07:26:36;19.00;57.70
45283;DHT22;31023;44.994;1.796;2022-10-29T07:29:02;18.80;57.00
45283;DHT22;31023;44.994;1.796;2022-10-29T07:31:28;19.10;55.20
45283;DHT22;31023;44.994;1.796;2022-10-29T07:33:54;19.20;55.50
45283;DHT22;31023;44.994;1.796;2022-10-29T07:36:19;19.10;54.90
45283;DHT22;31023;44.994;1.796;2022-10-29T07:38:45;19.10;54.70
45283;DHT22;31023;44.994;1.796;2022-10-29T07:41:11;19.10;55.10
45283;DHT22;31023;44.994;1.796;2022-10-29T07:43:36;19.10;54.60
45283;DHT22;31023;44.994;1.796;2022-10-29T07:46:02;19.10;55.20
45283;DHT22;31023;44.994;1.796;2022-10-29T07:48:28;19.60;53.50
45283;DHT22;31023;44.994;1.796;2022-10-29T07:50:54;20.30;52.60
45283;DHT22;31023;44.994;1.796;2022-10-29T07:53:21;20.70;51.50
45283;DHT22;31023;44.994;1.796;2022-10-29T07:55:51;21.00;52.70
45283;DHT22;31023;44.994;1.796;2022-10-29T07:58:16;21.20;51.20
45283;DHT22;31023;44.994;1.796;2022-10-29T08:00:42;21.60;51.00
45283;DHT22;31023;44.994;1.796;2022-10-29T08:03:09;21.80;50.90
45283;DHT22;31023;44.994;1.796;2022-10-29T08:05:34;21.70;50.00
45283;DHT22;31023;44.994;1.796;2022-10-29T08:08:00;22.00;49.60
45283;DHT22;31023;44.994;1.796;2022-10-29T08:10:26;22.10;48.20
45283;DHT22;31023;44.994;1.796;2022-10-29T08:12:52;22.20;48.00
45283;DHT22;31023;44.994;1.796;2022-10-29T08:15:18;22.30;48.50
45283;DHT22;31023;44.994;1.796;2022-10-29T08:17:44;22.30;47.30
45283;DHT22;31023;44.994;1.796;2022-10-29T08:20:09;22.40;47.50
45283;DHT22;31023;44.994;1.796;2022-10-29T08:22:35;22.00;47.30
45283;DHT22;31023;44.994;1.796;2022-10-29T08:25:01;21.90;47.40
45283;DHT22;31023;44.994;1.796;2022-10-29T08:27:26;21.60;47.90
45283;DHT22;31023;44.994;1.796;2022-10-29T08:29:52;21.40;47.90
45283;DHT22;31023;44.994;1.796;2022-10-29T08:32:17;21.40;47.60
45283;DHT22;31023;44.994;1.796;2022-10-29T08:34:43;21.30;47.40
45283;DHT22;31023;44.994;1.796;2022-10-29T08:37:08;21.30;47.30
45283;DHT22;31023;44.994;1.796;2022-10-29T08:39:34;21.20;47.20
45283;DHT22;31023;44.994;1.796;2022-10-29T08:47:23;21.70;46.80
45283;DHT22;31023;44.994;1.796;2022-10-29T08:52:34;21.90;47.00
45283;DHT22;31023;44.994;1.796;2022-10-29T08:57:30;22.00;46.40
45283;DHT22;31023;44.994;1.796;2022-10-29T09:02:23;21.80;47.50
45283;DHT22;31023;44.994;1.796;2022-10-29T09:04:49;21.60;47.20
45283;DHT22;31023;44.994;1.796;2022-10-29T09:07:27;21.80;47.80
45283;DHT22;31023;44.994;1.796;2022-10-29T09:15:04;23.30;46.40
45283;DHT22;31023;44.994;1.796;2022-10-29T09:26:10;23.00;47.70
45283;DHT22;31023;44.994;1.796;2022-10-29T09:33:38;23.10;46.30
45283;DHT22;31023;44.994;1.796;2022-10-29T09:36:09;23.10;48.00
45283;DHT22;31023;44.994;1.796;2022-10-29T09:38:36;23.20;49.20
45283;DHT22;31023;44.994;1.796;2022-10-29T09:41:07;23.20;49.60
45283;DHT22;31023;44.994;1.796;2022-10-29T09:43:57;23.40;50.10
45283;DHT22;31023;44.994;1.796;2022-10-29T09:46:40;23.60;47.90
45283;DHT22;31023;44.994;1.796;2022-10-29T09:51:42;23.70;46.30
45283;DHT22;31023;44.994;1.796;2022-10-29T09:54:10;23.50;51.20
45283;DHT22;31023;44.994;1.796;2022-10-29T09:56:38;23.60;50.30
45283;DHT22;31023;44.994;1.796;2022-10-29T10:01:37;23.60;46.10
45283;DHT22;31023;44.994;1.796;2022-10-29T10:04:05;23.10;49.10
45283;DHT22;31023;44.994;1.796;2022-10-29T10:06:59;22.90;46.90
45283;DHT22;31023;44.994;1.796;2022-10-29T10:09:21;22.70;48.70
45283;DHT22;31023;44.994;1.796;2022-10-29T10:11:48;22.80;49.80
45283;DHT22;31023;44.994;1.796;2022-10-29T10:14:18;23.10;48.50
45283;DHT22;31023;44.994;1.796;2022-10-29T10:16:44;23.50;50.80
45283;DHT22;31023;44.994;1.796;2022-10-29T10:19:20;23.70;47.20
45283;DHT22;31023;44.994;1.796;2022-10-29T10:21:46;23.90;45.60
45283;DHT22;31023;44.994;1.796;2022-10-29T10:24:27;23.90;46.10
45283;DHT22;31023;44.994;1.796;2022-10-29T10:26:53;23.90;44.40
45283;DHT22;31023;44.994;1.796;2022-10-29T10:29:19;23.70;45.70
45283;DHT22;31023;44.994;1.796;2022-10-29T10:31:46;23.80;45.80
45283;DHT22;31023;44.994;1.796;2022-10-29T10:37:03;23.30;55.10
45283;DHT22;31023;44.994;1.796;2022-10-29T10:39:36;23.00;55.80
45283;DHT22;31023;44.994;1.796;2022-10-29T10:42:05;23.20;48.10
45283;DHT22;31023;44.994;1.796;2022-10-29T10:44:41;23.30;50.70
45283;DHT22;31023;44.994;1.796;2022-10-29T10:47:11;23.40;48.90
45283;DHT22;31023;44.994;1.796;2022-10-29T10:49:37;23.60;49.20
45283;DHT22;31023;44.994;1.796;2022-10-29T10:52:12;23.60;48.80
45283;DHT22;31023;44.994;1.796;2022-10-29T10:54:40;23.70;50.00
45283;DHT22;31023;44.994;1.796;2022-10-29T10:59:56;24.00;46.60
45283;DHT22;31023;44.994;1.796;2022-10-29T11:04:51;24.30;46.90
45283;DHT22;31023;44.994;1.796;2022-10-29T11:07:20;24.30;46.20
45283;DHT22;31023;44.994;1.796;2022-10-29T11:09:48;24.20;45.20
45283;DHT22;31023;44.994;1.796;2022-10-29T11:12:26;24.10;45.30
45283;DHT22;31023;44.994;1.796;2022-10-29T11:15:04;24.00;45.80
45283;DHT22;31023;44.994;1.796;2022-10-29T11:17:31;24.00;45.60
45283;DHT22;31023;44.994;1.796;2022-10-29T11:20:05;23.90;46.00
45283;DHT22;31023;44.994;1.796;2022-10-29T11:24:59;23.90;45.70
45283;DHT22;31023;44.994;1.796;2022-10-29T11:27:35;24.00;46.00
45283;DHT22;31023;44.994;1.796;2022-10-29T11:32:37;24.00;45.10
45283;DHT22;31023;44.994;1.796;2022-10-29T11:35:09;24.10;45.10
45283;DHT22;31023;44.994;1.796;2022-10-29T11:42:45;24.10;45.70
45283;DHT22;31023;44.994;1.796;2022-10-29T11:45:13;24.20;46.10
45283;DHT22;31023;44.994;1.796;2022-10-29T11:55:39;24.20;45.20
45283;DHT22;31023;44.994;1.796;2022-10-29T11:58:22;24.20;46.00
45283;DHT22;31023;44.994;1.796;2022-10-29T12:06:30;24.30;44.10
45283;DHT22;31023;44.994;1.796;2022-10-29T12:11:24;24.30;44.40
45283;DHT22;31023;44.994;1.796;2022-10-29T12:29:10;24.40;44.70
45283;DHT22;31023;44.994;1.796;2022-10-29T12:34:07;24.50;43.60
45283;DHT22;31023;44.994;1.796;2022-10-29T12:36:39;24.60;44.00
45283;DHT22;31023;44.994;1.796;2022-10-29T12:39:10;24.60;43.60
45283;DHT22;31023;44.994;1.796;2022-10-29T12:41:40;24.60;44.80
45283;DHT22;31023;44.994;1.796;2022-10-29T12:44:10;24.70;45.10
45283;DHT22;31023;44.994;1.796;2022-10-29T12:46:47;24.60;44.60
45283;DHT22;31023;44.994;1.796;2022-10-29T12:52:01;24.70;44.20
45283;DHT22;31023;44.994;1.796;2022-10-29T12:54:35;24.70;45.60
45283;DHT22;31023;44.994;1.796;2022-10-29T12:59:37;24.50;45.50
45283;DHT22;31023;44.994;1.796;2022-10-29T13:13:00;24.60;45.60
45283;DHT22;31023;44.994;1.796;2022-10-29T13:15:36;24.60;46.50
45283;DHT22;31023;44.994;1.796;2022-10-29T13:18:27;24.50;45.60
45283;DHT22;31023;44.994;1.796;2022-10-29T13:20:51;24.50;45.30
45283;DHT22;31023;44.994;1.796;2022-10-29T13:25:46;24.50;45.40
45283;DHT22;31023;44.994;1.796;2022-10-29T13:30:42;24.50;45.10
45283;DHT22;31023;44.994;1.796;2022-10-29T13:33:53;24.50;45.10
45283;DHT22;31023;44.994;1.796;2022-10-29T13:35:54;24.40;46.40
45283;DHT22;31023;44.994;1.796;2022-10-29T13:43:32;24.30;46.70
45283;DHT22;31023;44.994;1.796;2022-10-29T13:46:00;24.30;47.00
45283;DHT22;31023;44.994;1.796;2022-10-29T13:48:28;24.40;47.30
45283;DHT22;31023;44.994;1.796;2022-10-29T13:50:55;24.20;48.10
45283;DHT22;31023;44.994;1.796;2022-10-29T13:53:37;24.10;47.50
45283;DHT22;31023;44.994;1.796;2022-10-29T13:56:07;24.20;47.60
45283;DHT22;31023;44.994;1.796;2022-10-29T13:58:33;24.20;48.10
45283;DHT22;31023;44.994;1.796;2022-10-29T14:01:01;24.20;48.60
45283;DHT22;31023;44.994;1.796;2022-10-29T14:06:21;24.10;48.50
45283;DHT22;31023;44.994;1.796;2022-10-29T14:11:37;24.10;48.50
45283;DHT22;31023;44.994;1.796;2022-10-29T14:14:03;24.10;50.00
45283;DHT22;31023;44.994;1.796;2022-10-29T14:16:29;24.10;49.50
45283;DHT22;31023;44.994;1.796;2022-10-29T14:18:57;24.00;49.20
45283;DHT22;31023;44.994;1.796;2022-10-29T14:21:24;24.00;49.80
45283;DHT22;31023;44.994;1.796;2022-10-29T14:23:53;23.90;50.40
45283;DHT22;31023;44.994;1.796;2022-10-29T14:26:19;24.10;49.60
45283;DHT22;31023;44.994;1.796;2022-10-29T14:28:44;24.00;50.30
45283;DHT22;31023;44.994;1.796;2022-10-29T14:31:23;23.90;50.20
45283;DHT22;31023;44.994;1.796;2022-10-29T14:38:53;23.80;51.10
45283;DHT22;31023;44.994;1.796;2022-10-29T14:41:20;23.80;51.30
45283;DHT22;31023;44.994;1.796;2022-10-29T14:46:32;23.60;53.30
45283;DHT22;31023;44.994;1.796;2022-10-29T14:49:20;23.50;52.80
45283;DHT22;31023;44.994;1.796;2022-10-29T14:51:57;23.60;52.70
45283;DHT22;31023;44.994;1.796;2022-10-29T14:54:24;23.60;52.30
45283;DHT22;31023;44.994;1.796;2022-10-29T14:56:53;23.60;53.30
45283;DHT22;31023;44.994;1.796;2022-10-29T14:59:20;23.60;53.40
45283;DHT22;31023;44.994;1.796;2022-10-29T15:01:48;23.60;53.00
45283;DHT22;31023;44.994;1.796;2022-10-29T15:04:24;23.80;52.30
45283;DHT22;31023;44.994;1.796;2022-10-29T15:06:51;23.50;53.00
45283;DHT22;31023;44.994;1.796;2022-10-29T15:09:16;23.40;53.50
45283;DHT22;31023;44.994;1.796;2022-10-29T15:12:14;23.30;54.30
45283;DHT22;31023;44.994;1.796;2022-10-29T15:14:46;23.30;54.50
45283;DHT22;31023;44.994;1.796;2022-10-29T15:17:15;23.50;53.90
45283;DHT22;31023;44.994;1.796;2022-10-29T15:19:42;23.40;54.00
45283;DHT22;31023;44.994;1.796;2022-10-29T15:22:10;23.20;54.60
45283;DHT22;31023;44.994;1.796;2022-10-29T15:24:36;23.20;55.00
45283;DHT22;31023;44.994;1.796;2022-10-29T15:27:01;23.10;55.00
45283;DHT22;31023;44.994;1.796;2022-10-29T15:29:28;23.10;55.10
45283;DHT22;31023;44.994;1.796;2022-10-29T15:31:56;23.00;55.40
45283;DHT22;31023;44.994;1.796;2022-10-29T15:34:26;22.90;56.20
45283;DHT22;31023;44.994;1.796;2022-10-29T15:36:53;22.90;56.10
45283;DHT22;31023;44.994;1.796;2022-10-29T15:41:51;22.80;55.70
45283;DHT22;31023;44.994;1.796;2022-10-29T15:44:36;22.90;55.60
45283;DHT22;31023;44.994;1.796;2022-10-29T15:47:16;22.90;56.50
45283;DHT22;31023;44.994;1.796;2022-10-29T15:49:42;22.90;55.30
45283;DHT22;31023;44.994;1.796;2022-10-29T15:52:08;22.90;55.30
45283;DHT22;31023;44.994;1.796;2022-10-29T15:54:35;22.70;55.80
45283;DHT22;31023;44.994;1.796;2022-10-29T15:57:01;22.50;56.00
45283;DHT22;31023;44.994;1.796;2022-10-29T15:59:26;22.50;56.10
45283;DHT22;31023;44.994;1.796;2022-10-29T16:01:52;22.50;55.50
45283;DHT22;31023;44.994;1.796;2022-10-29T16:04:17;22.50;56.30
45283;DHT22;31023;44.994;1.796;2022-10-29T16:06:43;22.50;55.80
45283;DHT22;31023;44.994;1.796;2022-10-29T16:09:09;22.40;55.60
45283;DHT22;31023;44.994;1.796;2022-10-29T16:11:40;22.40;56.10
45283;DHT22;31023;44.994;1.796;2022-10-29T16:14:07;22.20;56.40
45283;DHT22;31023;44.994;1.796;2022-10-29T16:16:33;22.10;56.40
45283;DHT22;31023;44.994;1.796;2022-10-29T16:18:58;22.10;56.20
45283;DHT22;31023;44.994;1.796;2022-10-29T16:21:24;22.00;56.60
45283;DHT22;31023;44.994;1.796;2022-10-29T16:23:50;21.90;56.50
45283;DHT22;31023;44.994;1.796;2022-10-29T16:26:17;21.70;57.00
45283;DHT22;31023;44.994;1.796;2022-10-29T16:28:43;21.40;57.60
45283;DHT22;31023;44.994;1.796;2022-10-29T16:31:19;21.60;57.80
45283;DHT22;31023;44.994;1.796;2022-10-29T16:33:49;21.60;57.70
45283;DHT22;31023;44.994;1.796;2022-10-29T16:36:15;21.60;57.40
45283;DHT22;31023;44.994;1.796;2022-10-29T16:38:41;21.70;57.00
45283;DHT22;31023;44.994;1.796;2022-10-29T16:41:11;21.50;57.70
45283;DHT22;31023;44.994;1.796;2022-10-29T16:43:37;21.50;57.40
45283;DHT22;31023;44.994;1.796;2022-10-29T16:46:02;21.40;57.80
45283;DHT22;31023;44.994;1.796;2022-10-29T16:48:28;21.30;57.80
45283;DHT22;31023;44.994;1.796;2022-10-29T16:50:54;21.10;58.30
45283;DHT22;31023;44.994;1.796;2022-10-29T16:53:19;21.20;59.00
45283;DHT22;31023;44.994;1.796;2022-10-29T16:55:45;21.10;58.40
45283;DHT22;31023;44.994;1.796;2022-10-29T16:58:11;21.00;58.80
45283;DHT22;31023;44.994;1.796;2022-10-29T17:00:37;21.00;58.60
45283;DHT22;31023;44.994;1.796;2022-10-29T17:03:02;20.90;58.90
45283;DHT22;31023;44.994;1.796;2022-10-29T17:05:28;20.80;59.70
45283;DHT22;31023;44.994;1.796;2022-10-29T17:07:54;20.80;59.80
45283;DHT22;31023;44.994;1.796;2022-10-29T17:10:19;20.80;59.80
45283;DHT22;31023;44.994;1.796;2022-10-29T17:12:45;20.60;60.60
45283;DHT22;31023;44.994;1.796;2022-10-29T17:15:11;20.70;60.00
45283;DHT22;31023;44.994;1.796;2022-10-29T17:17:36;20.70;59.60
45283;DHT22;31023;44.994;1.796;2022-10-29T17:20:02;20.50;60.00
45283;DHT22;31023;44.994;1.796;2022-10-29T17:22:28;21.00;58.80
45283;DHT22;31023;44.994;1.796;2022-10-29T17:24:53;20.50;59.60
45283;DHT22;31023;44.994;1.796;2022-10-29T17:27:19;20.90;58.20
45283;DHT22;31023;44.994;1.796;2022-10-29T17:29:44;20.60;59.20
45283;DHT22;31023;44.994;1.796;2022-10-29T17:32:10;20.20;60.70
45283;DHT22;31023;44.994;1.796;2022-10-29T17:34:35;20.50;59.40
45283;DHT22;31023;44.994;1.796;2022-10-29T17:37:01;20.60;59.00
45283;DHT22;31023;44.994;1.796;2022-10-29T17:39:27;20.50;59.40
45283;DHT22;31023;44.994;1.796;2022-10-29T17:41:52;20.30;59.20
45283;DHT22;31023;44.994;1.796;2022-10-29T17:44:18;20.30;59.50
45283;DHT22;31023;44.994;1.796;2022-10-29T17:46:44;20.70;58.10
45283;DHT22;31023;44.994;1.796;2022-10-29T17:49:09;20.50;58.70
45283;DHT22;31023;44.994;1.796;2022-10-29T17:51:35;20.30;59.10
45283;DHT22;31023;44.994;1.796;2022-10-29T17:54:00;20.10;59.90
45283;DHT22;31023;44.994;1.796;2022-10-29T17:56:26;20.10;59.10
45283;DHT22;31023;44.994;1.796;2022-10-29T17:58:52;20.20;58.70
45283;DHT22;31023;44.994;1.796;2022-10-29T18:01:17;20.40;58.20
45283;DHT22;31023;44.994;1.796;2022-10-29T18:03:43;20.20;58.30
45283;DHT22;31023;44.994;1.796;2022-10-29T18:06:09;20.20;58.00
45283;DHT22;31023;44.994;1.796;2022-10-29T18:08:35;20.10;58.50
45283;DHT22;31023;44.994;1.796;2022-10-29T18:11:05;19.90;59.30
45283;DHT22;31023;44.994;1.796;2022-10-29T18:13:32;19.80;59.00